Hiyodori — JD2366 — position and weather

sailwx.info

Track history (hours):
 
Tides and Currents Weather Stations Pressure Air Temp Water Temp Dewpoint Dewpoint Depression Visibility Wind Speed Wind Dir Waves Ship Positions

Hiyodori

Last reported at 2015-Aug-01 10:07 UTC. Time now 2015-Aug-03 08:39 UTC.
Position N 34°59' E 139°27'.

Length 88 m; draft 3.6 m.

Type: Cargo ship. MMSI: 431000132.

Date/timePositionNaut miles runAvg speedWind from/ knotsBaromVisibWave heightAir tempDewpointWater temp
2015-Aug-01 10:07N 34°59' E 139°27'611.3
2015-Aug-01 09:33N 35°03' E 139°33'1111.6
2015-Aug-01 08:33N 35°10' E 139°44'10 9.9
2015-Aug-01 07:33N 35°20' E 139°42'4 4.4
2015-Aug-01 06:34N 35°24' E 139°41'0 0.0
2015-Aug-01 05:34N 35°24' E 139°41'0 0.0
2015-Aug-01 04:34N 35°24' E 139°41'3 2.7
2015-Aug-01 03:33N 35°23' E 139°43'0 0.0
2015-Aug-01 02:33N 35°22' E 139°43'0 0.1
2015-Aug-01 01:33N 35°22' E 139°43'0 0.0
2015-Aug-01 00:34N 35°22' E 139°43'0 0.0
2015-Jul-31 23:33N 35°22' E 139°43'0 0.0
2015-Jul-31 22:34N 35°22' E 139°43'9 9.1
2015-Jul-31 21:34N 35°14' E 139°47'1312.5
2015-Jul-31 20:33N 35°02' E 139°41'239 6.0
2015-Jul-30 04:28N 34°03' E 134°59'1314.0
2015-Jul-30 03:33N 34°16' E 134°58'1211.8
2015-Jul-30 02:33N 34°26' E 135°06'1212.3
2015-Jul-30 01:33N 34°36' E 135°15'5 5.1
2015-Jul-30 00:33N 34°41' E 135°16'0 0.0
2015-Jul-29 23:33N 34°41' E 135°16'1 1.4
2015-Jul-29 22:33N 34°39' E 135°16'3 2.5
2015-Jul-29 21:33N 34°37' E 135°17'0 0.0
2015-Jul-29 20:33N 34°37' E 135°17'0 0.1
2015-Jul-29 19:33N 34°37' E 135°17'0 0.0
2015-Jul-29 18:33N 34°37' E 135°17'0 0.0
2015-Jul-29 17:33N 34°37' E 135°17'0 0.0
2015-Jul-29 16:33N 34°37' E 135°17'0 0.0
2015-Jul-29 15:33N 34°37' E 135°17'1 0.6
2015-Jul-29 14:33N 34°37' E 135°17'1111.0
2015-Jul-29 13:33N 34°28' E 135°08'1412.1
2015-Jul-29 12:25N 34°17' E 134°59'1113.3
2015-Jul-29 11:33N 34°05' E 135°01'227 7.5
2015-Jul-28 05:21N 35°01' E 139°28'911.6
2015-Jul-28 04:33N 35°06' E 139°37'1111.3
2015-Jul-28 03:33N 35°14' E 139°46'1110.6
2015-Jul-28 02:33N 35°24' E 139°41'0 0.2
2015-Jul-28 01:33N 35°24' E 139°41'0 0.0
2015-Jul-28 00:33N 35°24' E 139°41'5 5.2
2015-Jul-27 23:33N 35°19' E 139°43'1111.3
2015-Jul-27 22:33N 35°08' E 139°45'  
2015-Jul-25 10:29N 34°58' E 139°24'1010.6
2015-Jul-25 09:32N 35°03' E 139°34'1313.2
2015-Jul-25 08:33N 35°12' E 139°46'1312.6
2015-Jul-25 07:33N 35°24' E 139°40'1 0.6
2015-Jul-25 06:33N 35°24' E 139°41'0 0.0
2015-Jul-25 05:33N 35°24' E 139°41'0 0.0
2015-Jul-25 04:33N 35°24' E 139°41'2 2.4
2015-Jul-25 03:33N 35°23' E 139°43'0 0.0
2015-Jul-25 02:33N 35°23' E 139°43'0 0.0
2015-Jul-25 01:33N 35°23' E 139°43'0 0.0
2015-Jul-25 00:34N 35°23' E 139°43'0 0.0
2015-Jul-24 23:33N 35°23' E 139°43'2 1.7
2015-Jul-24 22:33N 35°21' E 139°43'1111.0
2015-Jul-24 21:33N 35°11' E 139°46'1211.8
2015-Jul-24 20:33N 35°01' E 139°38'55 1.5
2015-Jul-23 08:08N 35°02' E 138°30'0 0.0
2015-Jul-23 07:27N 35°02' E 138°30'0 0.0
2015-Jul-23 06:28N 35°02' E 138°30'0 0.0
2015-Jul-23 05:31N 35°02' E 138°30'0 0.0
2015-Jul-23 04:24N 35°02' E 138°30'0 0.0
2015-Jul-23 03:32N 35°02' E 138°30'0 0.0
2015-Jul-23 02:33N 35°02' E 138°30'0 0.0
2015-Jul-23 01:33N 35°02' E 138°30'0 0.0
2015-Jul-23 00:30N 35°02' E 138°30'0 0.0
2015-Jul-22 23:33N 35°02' E 138°30'48 5.8
2015-Jul-22 15:16N 35°01' E 139°29'710.1
2015-Jul-22 14:33N 35°05' E 139°36'1010.5
2015-Jul-22 13:34N 35°12' E 139°46'1110.6
2015-Jul-22 12:33N 35°22' E 139°42'2 2.4
2015-Jul-22 11:33N 35°24' E 139°41'0 0.0
2015-Jul-22 10:33N 35°24' E 139°41'  
Track history (hours):
 
Tides and Currents Weather Stations Pressure Air Temp Water Temp Dewpoint Dewpoint Depression Visibility Wind Speed Wind Dir Waves Ship Positions

Hiyodori

Last reported at 2015-Aug-01 10:07 UTC. Time now 2015-Aug-03 08:39 UTC.
Position N 34°59' E 139°27'.

Length 88 m; draft 3.6 m.

Type: Cargo ship. MMSI: 431000132.

Date/timePositionNaut miles runAvg speedWind from/ knotsBaromVisibWave heightAir tempDewpointWater temp
2015-Aug-01 10:07N 34°59' E 139°27'611.3
2015-Aug-01 09:33N 35°03' E 139°33'1111.6
2015-Aug-01 08:33N 35°10' E 139°44'10 9.9
2015-Aug-01 07:33N 35°20' E 139°42'4 4.4
2015-Aug-01 06:34N 35°24' E 139°41'0 0.0
2015-Aug-01 05:34N 35°24' E 139°41'0 0.0
2015-Aug-01 04:34N 35°24' E 139°41'3 2.7
2015-Aug-01 03:33N 35°23' E 139°43'0 0.0
2015-Aug-01 02:33N 35°22' E 139°43'0 0.1
2015-Aug-01 01:33N 35°22' E 139°43'0 0.0
2015-Aug-01 00:34N 35°22' E 139°43'0 0.0
2015-Jul-31 23:33N 35°22' E 139°43'0 0.0
2015-Jul-31 22:34N 35°22' E 139°43'9 9.1
2015-Jul-31 21:34N 35°14' E 139°47'1312.5
2015-Jul-31 20:33N 35°02' E 139°41'239 6.0
2015-Jul-30 04:28N 34°03' E 134°59'1314.0
2015-Jul-30 03:33N 34°16' E 134°58'1211.8
2015-Jul-30 02:33N 34°26' E 135°06'1212.3
2015-Jul-30 01:33N 34°36' E 135°15'5 5.1
2015-Jul-30 00:33N 34°41' E 135°16'0 0.0
2015-Jul-29 23:33N 34°41' E 135°16'1 1.4
2015-Jul-29 22:33N 34°39' E 135°16'3 2.5
2015-Jul-29 21:33N 34°37' E 135°17'0 0.0
2015-Jul-29 20:33N 34°37' E 135°17'0 0.1
2015-Jul-29 19:33N 34°37' E 135°17'0 0.0
2015-Jul-29 18:33N 34°37' E 135°17'0 0.0
2015-Jul-29 17:33N 34°37' E 135°17'0 0.0
2015-Jul-29 16:33N 34°37' E 135°17'0 0.0
2015-Jul-29 15:33N 34°37' E 135°17'1 0.6
2015-Jul-29 14:33N 34°37' E 135°17'1111.0
2015-Jul-29 13:33N 34°28' E 135°08'1412.1
2015-Jul-29 12:25N 34°17' E 134°59'1113.3
2015-Jul-29 11:33N 34°05' E 135°01'227 7.5
2015-Jul-28 05:21N 35°01' E 139°28'911.6
2015-Jul-28 04:33N 35°06' E 139°37'1111.3
2015-Jul-28 03:33N 35°14' E 139°46'1110.6
2015-Jul-28 02:33N 35°24' E 139°41'0 0.2
2015-Jul-28 01:33N 35°24' E 139°41'0 0.0
2015-Jul-28 00:33N 35°24' E 139°41'5 5.2
2015-Jul-27 23:33N 35°19' E 139°43'1111.3
2015-Jul-27 22:33N 35°08' E 139°45'  
2015-Jul-25 10:29N 34°58' E 139°24'1010.6
2015-Jul-25 09:32N 35°03' E 139°34'1313.2
2015-Jul-25 08:33N 35°12' E 139°46'1312.6
2015-Jul-25 07:33N 35°24' E 139°40'1 0.6
2015-Jul-25 06:33N 35°24' E 139°41'0 0.0
2015-Jul-25 05:33N 35°24' E 139°41'0 0.0
2015-Jul-25 04:33N 35°24' E 139°41'2 2.4
2015-Jul-25 03:33N 35°23' E 139°43'0 0.0
2015-Jul-25 02:33N 35°23' E 139°43'0 0.0
2015-Jul-25 01:33N 35°23' E 139°43'0 0.0
2015-Jul-25 00:34N 35°23' E 139°43'0 0.0
2015-Jul-24 23:33N 35°23' E 139°43'2 1.7
2015-Jul-24 22:33N 35°21' E 139°43'1111.0
2015-Jul-24 21:33N 35°11' E 139°46'1211.8
2015-Jul-24 20:33N 35°01' E 139°38'55 1.5
2015-Jul-23 08:08N 35°02' E 138°30'0 0.0
2015-Jul-23 07:27N 35°02' E 138°30'0 0.0
2015-Jul-23 06:28N 35°02' E 138°30'0 0.0
2015-Jul-23 05:31N 35°02' E 138°30'0 0.0
2015-Jul-23 04:24N 35°02' E 138°30'0 0.0
2015-Jul-23 03:32N 35°02' E 138°30'0 0.0
2015-Jul-23 02:33N 35°02' E 138°30'0 0.0
2015-Jul-23 01:33N 35°02' E 138°30'0 0.0
2015-Jul-23 00:30N 35°02' E 138°30'0 0.0
2015-Jul-22 23:33N 35°02' E 138°30'48 5.8
2015-Jul-22 15:16N 35°01' E 139°29'710.1
2015-Jul-22 14:33N 35°05' E 139°36'1010.5
2015-Jul-22 13:34N 35°12' E 139°46'1110.6
2015-Jul-22 12:33N 35°22' E 139°42'2 2.4
2015-Jul-22 11:33N 35°24' E 139°41'0 0.0
2015-Jul-22 10:33N 35°24' E 139°41'  

Dump ship's entire track history